Time;durP1;ratioP1;P1;durP2;ratioP2;P2;SDS_P1;SDS_P2;PMS_P1;PMS_P2;Temp;Humidity;BMP_temperature;BMP_pressure;BME280_temperature;BME280_humidity;BME280_pressure;Samples;Min_cycle;Max_cycle;Signal;HPM_P1;HPM_P2
2023/05/28 00:00:27;;;;;;;20.60;7.87;;;13.50;99.90;;;;;;5033093;28;20406;-79
2023/05/28 00:02:56;;;;;;;17.83;8.33;;;13.50;99.90;;;;;;5033467;28;20225;-80
2023/05/28 00:05:23;;;;;;;19.73;7.53;;;13.50;99.90;;;;;;5031833;28;20209;-78
2023/05/28 00:07:50;;;;;;;22.13;9.70;;;13.50;99.90;;;;;;5032915;28;20589;-79
2023/05/28 00:10:17;;;;;;;23.67;8.63;;;13.40;99.90;;;;;;5033239;28;20261;-78
2023/05/28 00:12:44;;;;;;;23.43;8.53;;;13.40;99.90;;;;;;5032387;28;20764;-79
2023/05/28 00:15:12;;;;;;;18.70;7.97;;;13.40;99.90;;;;;;5032854;28;20209;-78
2023/05/28 00:17:39;;;;;;;19.23;8.20;;;13.40;99.90;;;;;;5033479;28;20302;-78
2023/05/28 00:20:07;;;;;;;22.17;9.10;;;13.40;99.90;;;;;;5032005;28;20532;-80
2023/05/28 00:22:35;;;;;;;24.73;9.47;;;13.30;99.90;;;;;;5032663;28;20233;-80
2023/05/28 00:25:02;;;;;;;19.17;8.67;;;13.30;99.90;;;;;;5033009;28;20198;-79
2023/05/28 00:27:29;;;;;;;20.63;8.90;;;13.20;99.90;;;;;;5032281;28;20293;-80
2023/05/28 00:29:56;;;;;;;27.50;9.30;;;13.20;99.90;;;;;;5032170;28;20210;-80
2023/05/28 00:32:24;;;;;;;18.47;8.50;;;13.10;99.90;;;;;;5032363;28;20209;-81
2023/05/28 00:34:51;;;;;;;24.80;8.73;;;13.10;99.90;;;;;;5031926;28;20641;-79
2023/05/28 00:37:18;;;;;;;17.50;8.10;;;13.10;99.90;;;;;;5032583;28;20241;-79
2023/05/28 00:39:45;;;;;;;20.37;8.73;;;13.10;99.90;;;;;;5031894;28;20195;-80
2023/05/28 00:42:12;;;;;;;24.93;9.07;;;13.10;99.90;;;;;;5031452;28;20317;-80
2023/05/28 00:44:39;;;;;;;21.77;9.27;;;13.10;99.90;;;;;;5031856;28;20590;-80
2023/05/28 00:47:06;;;;;;;20.30;8.60;;;13.00;99.90;;;;;;5032245;28;20194;-81
2023/05/28 00:49:35;;;;;;;24.37;9.63;;;13.00;99.90;;;;;;5032327;28;20240;-79
2023/05/28 00:52:03;;;;;;;23.80;8.83;;;13.00;99.90;;;;;;5031234;28;20206;-81
2023/05/28 00:54:31;;;;;;;17.17;8.07;;;12.90;99.90;;;;;;5031631;28;20232;-80
2023/05/28 00:57:00;;;;;;;23.97;8.70;;;12.90;99.90;;;;;;5032068;28;20594;-80
2023/05/28 00:59:28;;;;;;;19.17;8.10;;;12.90;99.90;;;;;;5031823;28;20210;-79
2023/05/28 01:01:55;;;;;;;24.27;8.50;;;12.90;99.90;;;;;;5031442;28;20861;-80
2023/05/28 01:04:24;;;;;;;16.90;7.90;;;12.80;99.90;;;;;;5032005;28;20235;-79
2023/05/28 01:06:52;;;;;;;22.33;8.70;;;12.80;99.90;;;;;;5051200;28;20232;-78
2023/05/28 01:09:19;;;;;;;20.27;9.03;;;12.80;99.90;;;;;;5051272;28;20198;-81
2023/05/28 01:11:51;;;;;;;22.40;9.03;;;12.80;99.90;;;;;;5051989;28;20193;-81
2023/05/28 01:14:19;;;;;;;20.57;8.03;;;12.80;99.90;;;;;;5034015;28;20233;-80
2023/05/28 01:16:46;;;;;;;20.33;8.77;;;12.70;99.90;;;;;;5031650;28;20251;-80
2023/05/28 01:19:18;;;;;;;21.90;9.33;;;12.70;99.90;;;;;;5031896;28;20213;-81
2023/05/28 01:21:47;;;;;;;20.77;9.20;;;12.70;99.90;;;;;;5031543;28;20349;-80
2023/05/28 01:24:15;;;;;;;20.73;8.93;;;12.60;99.90;;;;;;5031159;28;20203;-79
2023/05/28 01:26:43;;;;;;;19.50;8.90;;;12.60;99.90;;;;;;5032141;28;20198;-80
2023/05/28 01:29:16;;;;;;;21.33;8.67;;;12.60;99.90;;;;;;5032012;28;20736;-79
2023/05/28 01:31:43;;;;;;;22.00;8.83;;;12.60;99.90;;;;;;5032147;28;20294;-80
2023/05/28 01:34:11;;;;;;;19.37;8.23;;;12.60;99.90;;;;;;5031721;28;20203;-79
2023/05/28 01:36:44;;;;;;;19.27;8.47;;;12.60;99.90;;;;;;5031376;28;20207;-79
2023/05/28 01:39:16;;;;;;;23.57;8.30;;;12.60;99.90;;;;;;5032326;28;20505;-79
2023/05/28 01:41:45;;;;;;;23.87;8.37;;;12.50;99.90;;;;;;5031931;28;20292;-78
2023/05/28 01:44:13;;;;;;;20.10;9.13;;;12.50;99.90;;;;;;5031022;28;20205;-81
2023/05/28 01:46:40;;;;;;;18.47;8.70;;;12.40;99.90;;;;;;5031798;28;20579;-79
2023/05/28 01:49:10;;;;;;;17.00;8.60;;;12.40;99.90;;;;;;5031459;28;20203;-80
2023/05/28 01:51:37;;;;;;;13.23;8.03;;;12.40;99.90;;;;;;5030889;28;20309;-79
2023/05/28 01:54:04;;;;;;;21.23;8.43;;;12.40;99.90;;;;;;5031585;28;20312;-80
2023/05/28 01:56:32;;;;;;;19.10;8.47;;;12.40;99.90;;;;;;5032099;28;20202;-79
2023/05/28 01:59:00;;;;;;;19.93;9.17;;;12.30;99.90;;;;;;5030838;28;20191;-81
2023/05/28 02:01:29;;;;;;;22.70;8.87;;;12.20;99.90;;;;;;5031362;28;20309;-79
2023/05/28 02:03:56;;;;;;;22.30;8.77;;;12.20;99.90;;;;;;5033789;28;20236;-79
2023/05/28 02:06:24;;;;;;;20.50;9.27;;;12.20;99.90;;;;;;5034636;28;20219;-81
2023/05/28 02:08:53;;;;;;;17.20;8.10;;;12.20;99.90;;;;;;5035111;28;20278;-79
2023/05/28 02:11:21;;;;;;;20.00;8.77;;;12.20;99.90;;;;;;5035301;28;20225;-80
2023/05/28 02:13:50;;;;;;;25.97;8.73;;;12.10;99.90;;;;;;5034615;28;20763;-80
2023/05/28 02:16:17;;;;;;;16.27;8.10;;;12.10;99.90;;;;;;5034634;28;20195;-80
2023/05/28 02:18:45;;;;;;;19.80;8.70;;;12.10;99.90;;;;;;5034014;28;20210;-79
2023/05/28 02:21:12;;;;;;;17.57;8.70;;;12.10;99.90;;;;;;5034378;28;20265;-79
2023/05/28 02:23:40;;;;;;;25.73;9.23;;;12.10;99.90;;;;;;5035078;28;20642;-79
2023/05/28 02:26:07;;;;;;;17.47;8.57;;;12.10;99.90;;;;;;5034129;28;20289;-79
2023/05/28 02:28:33;;;;;;;23.07;9.27;;;12.10;99.90;;;;;;5035167;28;20217;-78
2023/05/28 02:31:02;;;;;;;24.80;10.00;;;12.10;99.90;;;;;;5034602;28;20218;-79
2023/05/28 02:33:29;;;;;;;19.47;8.53;;;12.10;99.90;;;;;;5034411;28;20546;-79
2023/05/28 02:35:56;;;;;;;21.13;9.57;;;12.00;99.90;;;;;;5035025;28;20214;-80
2023/05/28 02:38:23;;;;;;;16.73;8.53;;;12.00;99.90;;;;;;5034835;28;20511;-80
2023/05/28 02:40:50;;;;;;;17.23;8.57;;;12.00;99.90;;;;;;5033674;28;20741;-79
2023/05/28 02:43:17;;;;;;;19.13;8.27;;;12.00;99.90;;;;;;5034252;28;20959;-82
2023/05/28 02:45:44;;;;;;;24.10;9.00;;;12.00;99.90;;;;;;5034612;28;20221;-79
2023/05/28 02:48:12;;;;;;;17.97;8.00;;;12.00;99.90;;;;;;5034252;28;20198;-79
2023/05/28 02:50:39;;;;;;;17.10;7.73;;;12.00;99.90;;;;;;5034809;28;20205;-79
2023/05/28 02:53:06;;;;;;;21.07;8.70;;;12.00;99.90;;;;;;5034244;28;20601;-79
2023/05/28 02:55:33;;;;;;;19.43;9.07;;;12.00;99.90;;;;;;5035942;28;20325;-79
2023/05/28 02:58:00;;;;;;;15.60;7.67;;;12.00;99.90;;;;;;5054284;28;20241;-79
2023/05/28 03:00:27;;;;;;;16.43;7.83;;;12.00;99.90;;;;;;5039310;28;20203;-79
2023/05/28 03:02:53;;;;;;;22.30;7.80;;;12.00;99.90;;;;;;5033636;28;20228;-79
2023/05/28 03:05:23;;;;;;;17.77;8.27;;;12.10;99.90;;;;;;5033990;28;20234;-79
2023/05/28 03:07:50;;;;;;;18.20;8.53;;;12.00;99.90;;;;;;5033398;28;20489;-79
2023/05/28 03:10:17;;;;;;;14.70;6.93;;;12.00;99.90;;;;;;5033951;28;20502;-79
2023/05/28 03:12:44;;;;;;;15.67;7.27;;;11.90;99.90;;;;;;5033560;28;20207;-80
2023/05/28 03:15:11;;;;;;;18.57;7.00;;;11.90;99.90;;;;;;5032541;28;20590;-79
2023/05/28 03:17:38;;;;;;;10.63;5.60;;;11.80;99.90;;;;;;5034256;28;20214;-80
2023/05/28 03:20:08;;;;;;;14.80;7.07;;;11.80;99.90;;;;;;5033659;28;20198;-80
2023/05/28 03:22:36;;;;;;;18.00;7.47;;;11.80;99.90;;;;;;5032802;28;20533;-79
2023/05/28 03:25:03;;;;;;;16.07;7.37;;;11.80;99.90;;;;;;5033685;28;20701;-79
2023/05/28 03:27:30;;;;;;;14.40;7.33;;;11.80;99.90;;;;;;5034035;28;20195;-79
2023/05/28 03:29:57;;;;;;;17.83;7.83;;;11.80;99.90;;;;;;5032820;28;20199;-79
2023/05/28 03:32:24;;;;;;;16.17;6.93;;;11.80;99.90;;;;;;5050360;28;20218;-79
2023/05/28 03:34:51;;;;;;;14.23;7.20;;;11.80;99.90;;;;;;5052448;28;20206;-80
2023/05/28 03:37:18;;;;;;;18.17;8.20;;;11.80;99.90;;;;;;5052719;28;20225;-80
2023/05/28 03:39:46;;;;;;;13.83;6.70;;;11.80;99.90;;;;;;5053385;28;20243;-80
2023/05/28 03:42:13;;;;;;;14.97;8.20;;;11.80;99.90;;;;;;5053202;28;20304;-79
2023/05/28 03:44:39;;;;;;;17.30;7.13;;;11.80;99.90;;;;;;5032830;28;20237;-80
2023/05/28 03:47:06;;;;;;;14.60;7.63;;;11.80;99.90;;;;;;5033488;28;20774;-79
2023/05/28 03:49:33;;;;;;;14.43;6.80;;;11.80;99.90;;;;;;5033798;28;20205;-78
2023/05/28 03:52:00;;;;;;;16.70;7.60;;;11.90;99.90;;;;;;5032378;28;20210;-79
2023/05/28 03:54:27;;;;;;;16.43;6.77;;;11.90;99.90;;;;;;5033338;28;20203;-80
2023/05/28 03:56:55;;;;;;;14.70;6.73;;;11.90;99.90;;;;;;5033851;28;20230;-80
2023/05/28 03:59:22;;;;;;;12.53;7.20;;;12.00;99.90;;;;;;5032982;28;20500;-79
2023/05/28 04:01:49;;;;;;;20.80;8.07;;;12.10;99.90;;;;;;5032867;28;20236;-79
2023/05/28 04:04:16;;;;;;;15.63;6.87;;;12.10;99.90;;;;;;5032259;28;20226;-80
2023/05/28 04:06:43;;;;;;;16.50;6.80;;;12.00;99.90;;;;;;5032427;28;20207;-80
2023/05/28 04:09:10;;;;;;;17.47;7.23;;;12.00;99.90;;;;;;5032823;28;20577;-79
2023/05/28 04:11:38;;;;;;;18.23;6.73;;;12.00;99.90;;;;;;5032339;28;20204;-79
2023/05/28 04:14:09;;;;;;;16.00;6.73;;;12.10;99.90;;;;;;5033093;28;20199;-81
2023/05/28 04:16:35;;;;;;;13.90;6.37;;;12.00;99.90;;;;;;5033111;28;20637;-79
2023/05/28 04:19:03;;;;;;;15.93;6.73;;;12.10;99.90;;;;;;5032029;28;20213;-79
2023/05/28 04:21:30;;;;;;;15.03;6.77;;;12.10;99.90;;;;;;5032756;28;20232;-80
2023/05/28 04:23:57;;;;;;;13.47;7.23;;;12.10;99.90;;;;;;5032649;28;20219;-79
2023/05/28 04:26:24;;;;;;;18.40;8.33;;;12.20;99.90;;;;;;5032178;28;20282;-79
2023/05/28 04:28:52;;;;;;;13.43;7.03;;;12.20;99.90;;;;;;5032623;28;20275;-79
2023/05/28 04:31:21;;;;;;;14.57;6.60;;;12.20;99.90;;;;;;5032609;28;20249;-80
2023/05/28 04:33:48;;;;;;;11.53;6.50;;;12.30;99.90;;;;;;5032178;28;20230;-80
2023/05/28 04:36:15;;;;;;;15.33;7.20;;;12.30;99.90;;;;;;5032339;28;20217;-79
2023/05/28 04:38:42;;;;;;;14.67;7.67;;;12.40;99.90;;;;;;5032736;28;20229;-81
2023/05/28 04:41:09;;;;;;;14.37;7.27;;;12.40;99.90;;;;;;5032014;28;20241;-80
2023/05/28 04:43:36;;;;;;;16.20;7.33;;;12.40;99.90;;;;;;5032509;28;20222;-81
2023/05/28 04:46:04;;;;;;;11.80;6.37;;;12.40;99.90;;;;;;5032505;28;20210;-83
2023/05/28 04:48:35;;;;;;;15.13;6.73;;;12.50;99.90;;;;;;5032402;28;20206;-80
2023/05/28 04:51:03;;;;;;;18.53;7.03;;;12.60;99.90;;;;;;5032853;28;20587;-82
2023/05/28 04:53:31;;;;;;;14.97;7.80;;;12.60;99.90;;;;;;5032055;28;20203;-80
2023/05/28 04:55:58;;;;;;;15.03;7.47;;;12.70;99.90;;;;;;5031984;28;20570;-81
2023/05/28 04:58:25;;;;;;;13.03;6.97;;;12.70;99.90;;;;;;5032637;28;20554;-81
2023/05/28 05:00:52;;;;;;;13.47;7.80;;;12.70;99.90;;;;;;5032110;28;20202;-81
2023/05/28 05:03:19;;;;;;;15.87;7.60;;;12.90;99.90;;;;;;5033055;28;20253;-84
2023/05/28 05:05:48;;;;;;;12.10;6.67;;;13.10;99.90;;;;;;5032694;28;20190;-81
2023/05/28 05:08:15;;;;;;;16.53;7.73;;;13.40;99.90;;;;;;5031843;28;20585;-79
2023/05/28 05:10:41;;;;;;;12.67;6.63;;;13.70;99.90;;;;;;5032562;28;20209;-80
2023/05/28 05:13:08;;;;;;;13.37;7.87;;;13.90;99.90;;;;;;5031613;28;20238;-84
2023/05/28 05:15:36;;;;;;;13.07;7.43;;;14.10;99.90;;;;;;5032077;28;20225;-81
2023/05/28 05:18:03;;;;;;;13.67;6.80;;;14.20;99.90;;;;;;5033536;28;20183;-81
2023/05/28 05:20:30;;;;;;;12.27;6.47;;;14.50;99.90;;;;;;5052467;28;20221;-80
2023/05/28 05:22:58;;;;;;;15.67;6.97;;;14.80;99.90;;;;;;5051402;28;20238;-81
2023/05/28 05:25:25;;;;;;;12.57;7.07;;;15.10;99.90;;;;;;5052470;28;20205;-81
2023/05/28 05:27:53;;;;;;;14.90;6.30;;;15.40;99.90;;;;;;5052640;28;20194;-83
2023/05/28 05:30:19;;;;;;;11.80;6.10;;;15.70;99.90;;;;;;5039060;28;20208;-82
2023/05/28 05:32:46;;;;;;;16.57;7.77;;;15.70;99.90;;;;;;5032580;28;20198;-80
2023/05/28 05:35:14;;;;;;;16.40;8.23;;;15.60;99.90;;;;;;5032044;28;20605;-81
2023/05/28 05:37:41;;;;;;;15.13;7.20;;;15.70;99.90;;;;;;5043836;28;20293;-79
2023/05/28 05:40:11;;;;;;;12.13;6.95;;;15.80;99.90;;;;;;5056356;28;20325;-79
2023/05/28 05:42:38;;;;;;;13.02;6.97;;;16.00;99.90;;;;;;5047433;28;20238;-78
2023/05/28 05:45:06;;;;;;;13.15;7.03;;;16.40;99.90;;;;;;5036043;28;20595;-80
2023/05/28 05:47:33;;;;;;;16.38;7.00;;;16.50;99.90;;;;;;5035493;28;20194;-80
2023/05/28 05:50:00;;;;;;;16.00;7.43;;;16.50;99.90;;;;;;5036169;28;20788;-79
2023/05/28 05:52:27;;;;;;;15.63;8.10;;;16.50;99.90;;;;;;5036359;28;20604;-81
2023/05/28 05:54:54;;;;;;;12.32;6.35;;;16.50;99.90;;;;;;5035970;28;20195;-83
2023/05/28 05:57:22;;;;;;;14.43;6.53;;;16.70;99.90;;;;;;5035423;28;20293;-82
2023/05/28 05:59:49;;;;;;;12.13;6.57;;;16.70;99.90;;;;;;5035727;28;20199;-81
2023/05/28 06:02:16;;;;;;;8.90;5.85;;;16.60;99.90;;;;;;5035492;28;20190;-81
2023/05/28 06:04:43;;;;;;;9.90;5.75;;;16.80;99.90;;;;;;5038507;28;20228;-80
2023/05/28 06:07:10;;;;;;;16.48;6.70;;;16.90;99.90;;;;;;5035653;28;20206;-79
2023/05/28 06:09:37;;;;;;;15.52;6.95;;;17.20;99.90;;;;;;5036650;28;20282;-80
2023/05/28 06:12:04;;;;;;;14.43;7.43;;;17.30;99.90;;;;;;5035503;28;20203;-82
2023/05/28 06:14:32;;;;;;;10.93;6.45;;;17.30;99.90;;;;;;5036257;28;20285;-82
2023/05/28 06:17:00;;;;;;;10.85;6.47;;;17.30;99.90;;;;;;5035598;28;20234;-81
2023/05/28 06:19:26;;;;;;;10.63;6.22;;;17.10;99.90;;;;;;5035989;28;20247;-83
2023/05/28 06:21:53;;;;;;;14.23;6.00;;;17.00;99.90;;;;;;5035934;28;20264;-87
2023/05/28 06:24:21;;;;;;;17.35;6.95;;;16.90;99.90;;;;;;5052264;28;20341;-80
2023/05/28 06:26:48;;;;;;;13.93;6.80;;;16.80;99.90;;;;;;5055629;28;20198;-84
2023/05/28 06:29:14;;;;;;;14.07;7.07;;;16.80;99.90;;;;;;5056491;28;20202;-87
2023/05/28 06:31:43;;;;;;;15.57;6.75;;;16.80;99.90;;;;;;5046801;28;20207;-82
2023/05/28 06:34:10;;;;;;;11.50;7.30;;;16.80;99.90;;;;;;5035939;28;20213;-82
2023/05/28 06:36:37;;;;;;;12.73;6.65;;;16.90;99.90;;;;;;5035766;28;20281;-81
2023/05/28 06:39:05;;;;;;;16.52;7.88;;;17.00;99.90;;;;;;5035754;28;20286;-81
2023/05/28 06:41:32;;;;;;;13.48;6.45;;;17.00;99.90;;;;;;5035722;28;20227;-82
2023/05/28 06:43:59;;;;;;;14.27;7.20;;;17.10;99.90;;;;;;5051666;28;20241;-82
2023/05/28 06:46:27;;;;;;;13.52;7.95;;;17.10;99.90;;;;;;5045445;28;20241;-84
2023/05/28 06:48:56;;;;;;;13.75;7.45;;;17.20;99.90;;;;;;5034229;28;20500;-79
2023/05/28 06:51:23;;;;;;;13.38;7.18;;;17.50;99.90;;;;;;5033321;28;20814;-81
2023/05/28 06:53:50;;;;;;;15.68;7.35;;;17.70;99.90;;;;;;5034465;28;20685;-82
2023/05/28 06:56:17;;;;;;;13.90;7.00;;;17.80;99.90;;;;;;5035407;28;20207;-86
2023/05/28 06:58:43;;;;;;;13.23;7.07;;;18.00;99.90;;;;;;5035336;28;20202;-83
2023/05/28 07:01:10;;;;;;;18.63;9.25;;;18.40;99.90;;;;;;5033547;28;20190;-81
2023/05/28 07:03:37;;;;;;;11.90;6.90;;;18.70;99.90;;;;;;5036217;28;20641;-82
2023/05/28 07:09:35;;;;;;;14.55;6.18;;;19.20;99.90;;;;;;5003503;28;20202;-81
2023/05/28 07:12:02;;;;;;;13.90;7.57;;;19.50;99.90;;;;;;5041575;28;20726;-83
2023/05/28 07:14:29;;;;;;;14.55;6.63;;;19.60;99.90;;;;;;5053389;28;20202;-85
2023/05/28 07:16:56;;;;;;;11.20;6.43;;;19.70;99.90;;;;;;5054174;28;20198;-85
2023/05/28 07:19:23;;;;;;;14.00;7.00;;;19.80;99.90;;;;;;5052381;28;20684;-87
2023/05/28 07:21:50;;;;;;;13.38;7.35;;;19.70;99.90;;;;;;5043512;28;20291;-80
2023/05/28 07:24:20;;;;;;;13.52;6.95;;;19.90;99.90;;;;;;5046454;28;20222;-80
2023/05/28 07:26:48;;;;;;;13.48;7.47;;;20.00;99.90;;;;;;5037931;28;20214;-81
2023/05/28 07:29:18;;;;;;;11.43;6.60;;;20.20;99.90;;;;;;5034425;28;20202;-82
2023/05/28 07:31:49;;;;;;;12.27;7.00;;;20.20;99.90;;;;;;5034803;28;20194;-82
2023/05/28 07:34:16;;;;;;;12.27;6.97;;;20.30;99.90;;;;;;5054503;28;20201;-86
2023/05/28 07:36:42;;;;;;;10.77;6.47;;;20.40;99.90;;;;;;5054661;28;20255;-82
2023/05/28 07:39:10;;;;;;;11.82;6.35;;;20.40;99.90;;;;;;5047580;28;20257;-84
2023/05/28 07:41:37;;;;;;;13.23;6.72;;;20.20;99.90;;;;;;5034537;28;20222;-83
2023/05/28 07:44:06;;;;;;;13.48;6.10;;;20.30;99.90;;;;;;5033925;28;20224;-84
2023/05/28 07:46:33;;;;;;;14.68;7.10;;;20.20;99.90;;;;;;5034712;28;20229;-81
2023/05/28 07:49:00;;;;;;;12.75;7.00;;;20.00;99.90;;;;;;5034391;28;20619;-84
2023/05/28 07:51:27;;;;;;;12.07;7.03;;;20.00;99.90;;;;;;5034684;28;20265;-84
2023/05/28 07:53:54;;;;;;;16.85;7.00;;;19.90;99.90;;;;;;5041811;28;20276;-80
2023/05/28 07:56:21;;;;;;;12.70;6.78;;;20.10;99.90;;;;;;5053825;28;20309;-85
2023/05/28 07:58:48;;;;;;;16.10;7.00;;;20.30;99.90;;;;;;5053695;28;20621;-86
2023/05/28 08:01:16;;;;;;;13.70;7.05;;;20.40;99.90;;;;;;5053882;28;20293;-86
2023/05/28 08:03:43;;;;;;;11.43;6.47;;;20.40;99.90;;;;;;5044570;28;20307;-83
2023/05/28 08:06:10;;;;;;;14.05;6.80;;;20.40;99.90;;;;;;5034193;28;20330;-82
2023/05/28 08:08:37;;;;;;;12.43;6.53;;;20.50;99.90;;;;;;5034538;28;20221;-84
2023/05/28 08:11:04;;;;;;;13.63;7.32;;;20.70;99.90;;;;;;5033174;28;20281;-81
2023/05/28 08:13:31;;;;;;;12.00;7.35;;;20.90;99.90;;;;;;5032848;28;20717;-83
2023/05/28 08:16:00;;;;;;;14.27;7.35;;;21.10;99.90;;;;;;5033813;28;20257;-83
2023/05/28 08:18:28;;;;;;;12.02;6.70;;;21.10;99.90;;;;;;5041881;28;20229;-83
2023/05/28 08:20:55;;;;;;;11.32;7.05;;;21.10;99.90;;;;;;5053526;28;20237;-82
2023/05/28 08:23:22;;;;;;;12.57;6.95;;;21.20;99.90;;;;;;5053809;28;20201;-84
2023/05/28 08:25:49;;;;;;;13.02;6.57;;;21.30;99.90;;;;;;5047435;28;20289;-82
2023/05/28 08:28:18;;;;;;;9.90;6.05;;;21.20;99.90;;;;;;5033246;28;20202;-83
2023/05/28 08:30:45;;;;;;;12.27;7.15;;;21.30;99.90;;;;;;5034178;28;20285;-83
2023/05/28 08:33:11;;;;;;;11.35;7.03;;;21.40;99.90;;;;;;5032731;28;20207;-82
2023/05/28 08:35:40;;;;;;;11.98;6.82;;;21.40;99.90;;;;;;5033924;28;20213;-84
2023/05/28 08:38:07;;;;;;;13.88;6.88;;;21.50;99.90;;;;;;5033118;28;20282;-82
2023/05/28 08:40:40;;;;;;;11.85;6.20;;;21.60;99.90;;;;;;5032925;28;20198;-84
2023/05/28 08:43:08;;;;;;;12.77;6.78;;;21.70;99.90;;;;;;5043680;28;20226;-85
2023/05/28 08:45:37;;;;;;;11.10;6.60;;;21.90;99.90;;;;;;5060204;28;20232;-87
2023/05/28 08:48:06;;;;;;;14.02;6.20;;;21.80;99.90;;;;;;5050112;28;20300;-84
2023/05/28 08:50:38;;;;;;;12.90;6.60;;;21.80;99.90;;;;;;5036474;28;20260;-87
2023/05/28 08:53:08;;;;;;;12.85;6.82;;;21.70;99.90;;;;;;5046439;28;20207;-88
2023/05/28 08:55:36;;;;;;;15.98;7.60;;;21.50;99.90;;;;;;5034130;28;20733;-82
2023/05/28 08:58:04;;;;;;;12.02;6.70;;;21.40;99.90;;;;;;5050605;28;20202;-83
2023/05/28 09:00:30;;;;;;;13.93;7.20;;;21.50;99.90;;;;;;5052009;28;20613;-89
2023/05/28 09:02:58;;;;;;;10.50;5.75;;;21.80;99.90;;;;;;5053932;28;20602;-87
2023/05/28 09:05:25;;;;;;;12.32;6.43;;;22.00;99.90;;;;;;5053803;28;20283;-88
2023/05/28 09:07:52;;;;;;;10.88;5.97;;;22.20;99.90;;;;;;5053544;28;20209;-85
2023/05/28 09:10:20;;;;;;;14.95;6.53;;;21.80;99.90;;;;;;5053526;28;20277;-88
2023/05/28 09:12:58;;;;;;;11.75;6.63;;;22.00;99.90;;;;;;5033565;28;20225;-89
2023/05/28 09:15:25;;;;;;;14.35;6.30;;;21.80;99.90;;;;;;5056144;28;20193;-87
2023/05/28 09:17:52;;;;;;;16.30;7.15;;;22.00;99.90;;;;;;5053452;28;20281;-85
2023/05/28 09:20:19;;;;;;;12.40;6.50;;;22.30;99.90;;;;;;5058531;28;20229;-94
2023/05/28 09:22:46;;;;;;;9.25;5.70;;;22.40;99.90;;;;;;5064787;28;20287;-89
2023/05/28 09:25:14;;;;;;;11.50;6.43;;;22.30;99.90;;;;;;5053836;28;20308;-86
2023/05/28 09:27:47;;;;;;;10.80;5.93;;;22.30;99.90;;;;;;5039936;28;20493;-89
2023/05/28 09:30:14;;;;;;;13.02;6.50;;;22.60;99.90;;;;;;5034284;28;20221;-85
2023/05/28 09:32:41;;;;;;;12.48;6.60;;;22.70;99.90;;;;;;5033612;28;20477;-85
2023/05/28 09:35:09;;;;;;;14.38;6.90;;;22.70;99.90;;;;;;5033609;28;20202;-87
2023/05/28 09:37:36;;;;;;;12.45;5.72;;;22.60;99.90;;;;;;5034388;28;20305;-89
2023/05/28 09:40:04;;;;;;;11.23;6.20;;;22.40;99.90;;;;;;5033270;28;20194;-87
2023/05/28 09:42:41;;;;;;;12.15;6.25;;;22.30;99.90;;;;;;5033747;28;20249;-92
2023/05/28 09:45:10;;;;;;;10.63;5.72;;;22.30;99.90;;;;;;5033106;28;20214;-89
2023/05/28 09:47:43;;;;;;;12.25;5.95;;;22.10;99.90;;;;;;5034561;28;20586;-89
2023/05/28 09:50:11;;;;;;;12.75;5.70;;;22.10;99.90;;;;;;5045366;28;20218;-84
2023/05/28 09:52:40;;;;;;;12.50;6.15;;;22.10;99.90;;;;;;5033474;28;20226;-89
2023/05/28 09:55:08;;;;;;;13.07;6.57;;;21.90;99.90;;;;;;5025329;28;20194;-88
2023/05/28 09:57:39;;;;;;;12.15;7.03;;;21.80;99.90;;;;;;5051814;28;20496;-96
2023/05/28 10:00:19;;;;;;;10.75;5.65;;;21.80;99.90;;;;;;5054306;28;20198;-95
2023/05/28 10:02:56;;;;;;;11.32;6.10;;;22.20;99.90;;;;;;5033486;28;20241;-86
2023/05/28 10:05:27;;;;;;;11.90;6.35;;;22.40;99.90;;;;;;5034505;28;20226;-87
2023/05/28 10:07:54;;;;;;;12.38;5.75;;;22.40;99.90;;;;;;5049580;28;20291;-88
2023/05/28 10:10:22;;;;;;;10.32;5.57;;;22.30;99.90;;;;;;5061476;28;20603;-85
2023/05/28 10:12:53;;;;;;;13.32;6.00;;;22.20;99.90;;;;;;5055905;28;20190;-90
2023/05/28 10:15:21;;;;;;;11.60;6.00;;;21.90;99.90;;;;;;5054635;28;20273;-82
2023/05/28 10:17:50;;;;;;;13.63;5.65;;;21.70;99.90;;;;;;5041742;28;20198;-85
2023/05/28 10:20:18;;;;;;;13.27;6.55;;;21.80;99.90;;;;;;5053310;28;20198;-83
2023/05/28 10:22:45;;;;;;;11.52;5.88;;;22.10;99.90;;;;;;5054960;28;20226;-85
2023/05/28 10:25:13;;;;;;;13.57;5.82;;;22.30;99.90;;;;;;5053070;28;20226;-81
2023/05/28 10:27:45;;;;;;;10.38;5.95;;;22.30;99.90;;;;;;5060890;28;20202;-87
2023/05/28 10:30:13;;;;;;;10.57;6.05;;;22.10;99.90;;;;;;5061770;28;20222;-83
2023/05/28 10:32:42;;;;;;;12.73;5.72;;;22.00;99.90;;;;;;5062448;28;20220;-85
2023/05/28 10:35:12;;;;;;;11.20;5.30;;;22.00;99.90;;;;;;5058754;28;20323;-84
2023/05/28 10:37:38;;;;;;;8.73;5.50;;;22.10;99.90;;;;;;5056077;28;20206;-87
2023/05/28 10:40:09;;;;;;;11.77;5.20;;;22.10;99.90;;;;;;5056014;28;20288;-85
2023/05/28 10:42:41;;;;;;;9.57;5.28;;;22.30;99.90;;;;;;5057574;28;20817;-82
2023/05/28 10:45:09;;;;;;;13.25;5.97;;;22.40;99.90;;;;;;5057314;28;20210;-88
2023/05/28 10:47:38;;;;;;;10.30;5.45;;;22.40;99.90;;;;;;5039530;28;20218;-89
2023/05/28 10:50:25;;;;;;;10.07;5.18;;;22.30;99.90;;;;;;5037932;28;20229;-90
2023/05/28 10:53:06;;;;;;;12.00;5.50;;;22.10;99.90;;;;;;5043463;28;20242;-94
2023/05/28 10:55:48;;;;;;;13.20;6.32;;;21.80;99.90;;;;;;5057421;28;20293;-86
2023/05/28 10:58:29;;;;;;;8.10;4.88;;;21.90;99.90;;;;;;5056469;28;20181;-83
2023/05/28 11:01:02;;;;;;;12.40;5.53;;;22.00;99.90;;;;;;5035738;28;20218;-86
2023/05/28 11:03:46;;;;;;;8.63;4.95;;;21.90;99.90;;;;;;5036348;28;20210;-84
2023/05/28 11:06:15;;;;;;;7.72;5.20;;;21.70;99.90;;;;;;5043679;28;20207;-83
2023/05/28 11:08:43;;;;;;;11.60;5.45;;;21.60;99.90;;;;;;5062514;28;20687;-85
2023/05/28 11:11:13;;;;;;;8.27;5.35;;;21.50;99.90;;;;;;5056193;28;20209;-84
2023/05/28 11:13:42;;;;;;;8.18;5.25;;;21.40;99.90;;;;;;5056396;28;20186;-91
2023/05/28 11:16:10;;;;;;;9.52;5.40;;;21.60;99.90;;;;;;5056862;28;20277;-90
2023/05/28 11:18:37;;;;;;;9.18;5.68;;;21.60;99.90;;;;;;5056612;28;20289;-92
2023/05/28 11:21:07;;;;;;;7.43;4.90;;;21.80;99.90;;;;;;5055124;28;20308;-82
2023/05/28 11:23:36;;;;;;;7.97;5.47;;;22.00;99.90;;;;;;5042566;28;20214;-92
2023/05/28 11:26:03;;;;;;;11.80;6.03;;;22.30;99.90;;;;;;5042975;28;20240;-80
2023/05/28 11:28:30;;;;;;;8.75;5.55;;;22.40;99.90;;;;;;5055405;28;20198;-83
2023/05/28 11:30:59;;;;;;;7.35;4.88;;;22.50;99.90;;;;;;5055106;28;20221;-84
2023/05/28 11:33:29;;;;;;;8.50;4.53;;;22.60;99.90;;;;;;5040003;28;20496;-90
2023/05/28 11:36:01;;;;;;;10.63;4.90;;;22.80;99.90;;;;;;5035672;28;20209;-87
2023/05/28 11:38:28;;;;;;;13.25;5.75;;;22.80;99.90;;;;;;5034085;28;20206;-83
2023/05/28 11:41:03;;;;;;;7.43;4.70;;;22.60;99.90;;;;;;5034804;28;20229;-82
2023/05/28 11:43:30;;;;;;;9.30;5.22;;;22.60;99.90;;;;;;5035346;28;20208;-87
2023/05/28 11:46:01;;;;;;;7.93;4.60;;;22.50;99.90;;;;;;5036047;28;20254;-88
2023/05/28 11:48:28;;;;;;;5.72;4.60;;;22.70;99.90;;;;;;5035938;28;20203;-88
2023/05/28 11:51:00;;;;;;;7.68;4.90;;;22.80;99.90;;;;;;5035736;28;20197;-87
2023/05/28 11:53:39;;;;;;;10.23;4.72;;;22.70;99.90;;;;;;5050660;28;20344;-84
2023/05/28 11:56:09;;;;;;;7.60;4.57;;;22.70;99.90;;;;;;5053124;28;20384;-85
2023/05/28 11:58:41;;;;;;;6.53;4.85;;;22.80;99.90;;;;;;5035057;28;20883;-88
2023/05/28 12:01:08;;;;;;;6.57;4.35;;;23.00;99.90;;;;;;5035996;28;20206;-89
2023/05/28 12:03:36;;;;;;;7.45;4.63;;;23.10;99.90;;;;;;5035268;28;20221;-87
2023/05/28 12:06:03;;;;;;;9.27;5.85;;;23.10;99.90;;;;;;5035675;28;20222;-84
2023/05/28 12:08:30;;;;;;;7.60;5.15;;;23.00;99.90;;;;;;5035260;28;20203;-87
2023/05/28 12:11:01;;;;;;;6.78;5.10;;;23.00;99.90;;;;;;5034515;28;20191;-84
2023/05/28 12:13:34;;;;;;;8.63;5.50;;;23.10;99.90;;;;;;5034514;28;20206;-87
2023/05/28 12:16:09;;;;;;;6.45;5.20;;;23.10;99.90;;;;;;5035113;28;20194;-87
2023/05/28 12:18:39;;;;;;;9.35;5.47;;;23.00;99.90;;;;;;5035342;28;20205;-89
2023/05/28 12:21:10;;;;;;;8.27;5.40;;;23.10;99.90;;;;;;5051475;28;20238;-86
2023/05/28 12:23:37;;;;;;;9.48;5.93;;;23.00;99.90;;;;;;5055572;28;20285;-85
2023/05/28 12:26:04;;;;;;;9.23;5.97;;;22.90;99.90;;;;;;5055846;28;20222;-87
2023/05/28 12:28:37;;;;;;;6.85;5.18;;;22.60;99.90;;;;;;5035247;28;20221;-89
2023/05/28 12:31:04;;;;;;;9.95;5.70;;;22.50;99.90;;;;;;5036267;28;20211;-86
2023/05/28 12:33:31;;;;;;;9.60;6.15;;;22.30;99.90;;;;;;5037436;28;20201;-85
2023/05/28 12:35:59;;;;;;;7.28;6.00;;;22.40;99.90;;;;;;5042504;28;20603;-87
2023/05/28 12:38:27;;;;;;;7.50;5.32;;;22.40;99.90;;;;;;5039569;28;20198;-83
2023/05/28 12:40:53;;;;;;;8.93;5.38;;;22.50;99.90;;;;;;5034972;28;20577;-85
2023/05/28 12:43:21;;;;;;;8.60;5.47;;;22.50;99.90;;;;;;5048194;28;20225;-85
2023/05/28 12:45:49;;;;;;;7.57;4.72;;;22.70;99.90;;;;;;5054630;28;20213;-89